sensor_id;sensor_type;location;lat;lon;timestamp;P1;P2;P0
77974;PMS5003;67164;51.202;0.278;2024-01-30T00:00:28;11;11;
77974;PMS5003;67164;51.202;0.278;2024-01-30T00:02:54;10;10;
77974;PMS5003;67164;51.202;0.278;2024-01-30T00:05:20;11;11;
77974;PMS5003;67164;51.202;0.278;2024-01-30T00:07:45;12;10;
77974;PMS5003;67164;51.202;0.278;2024-01-30T00:10:11;12;11;
77974;PMS5003;67164;51.202;0.278;2024-01-30T00:12:37;13;11;
77974;PMS5003;67164;51.202;0.278;2024-01-30T00:15:03;12;12;
77974;PMS5003;67164;51.202;0.278;2024-01-30T00:17:28;12;10;
77974;PMS5003;67164;51.202;0.278;2024-01-30T00:19:54;10;10;
77974;PMS5003;67164;51.202;0.278;2024-01-30T00:22:20;14;13;
77974;PMS5003;67164;51.202;0.278;2024-01-30T00:24:46;12;12;
77974;PMS5003;67164;51.202;0.278;2024-01-30T00:27:11;13;12;
77974;PMS5003;67164;51.202;0.278;2024-01-30T00:29:37;13;12;
77974;PMS5003;67164;51.202;0.278;2024-01-30T00:32:03;11;11;
77974;PMS5003;67164;51.202;0.278;2024-01-30T00:34:29;15;12;
77974;PMS5003;67164;51.202;0.278;2024-01-30T00:36:54;11;11;
77974;PMS5003;67164;51.202;0.278;2024-01-30T00:39:20;13;11;
77974;PMS5003;67164;51.202;0.278;2024-01-30T00:41:45;14;13;
77974;PMS5003;67164;51.202;0.278;2024-01-30T00:44:11;11;11;
77974;PMS5003;67164;51.202;0.278;2024-01-30T00:46:37;14;12;
77974;PMS5003;67164;51.202;0.278;2024-01-30T00:49:03;14;13;
77974;PMS5003;67164;51.202;0.278;2024-01-30T00:51:29;10;9;
77974;PMS5003;67164;51.202;0.278;2024-01-30T00:53:54;12;10;
77974;PMS5003;67164;51.202;0.278;2024-01-30T00:56:20;18;15;
77974;PMS5003;67164;51.202;0.278;2024-01-30T00:58:46;13;11;
77974;PMS5003;67164;51.202;0.278;2024-01-30T01:01:11;13;12;
77974;PMS5003;67164;51.202;0.278;2024-01-30T01:03:37;10;10;
77974;PMS5003;67164;51.202;0.278;2024-01-30T01:06:03;12;12;
77974;PMS5003;67164;51.202;0.278;2024-01-30T01:08:29;11;11;
77974;PMS5003;67164;51.202;0.278;2024-01-30T01:10:55;12;12;
77974;PMS5003;67164;51.202;0.278;2024-01-30T01:13:20;10;10;
77974;PMS5003;67164;51.202;0.278;2024-01-30T01:15:46;12;12;
77974;PMS5003;67164;51.202;0.278;2024-01-30T01:18:12;10;10;
77974;PMS5003;67164;51.202;0.278;2024-01-30T01:20:37;15;13;
77974;PMS5003;67164;51.202;0.278;2024-01-30T01:23:03;15;14;
77974;PMS5003;67164;51.202;0.278;2024-01-30T01:25:29;12;12;
77974;PMS5003;67164;51.202;0.278;2024-01-30T01:27:55;12;11;
77974;PMS5003;67164;51.202;0.278;2024-01-30T01:30:20;11;9;
77974;PMS5003;67164;51.202;0.278;2024-01-30T01:32:46;11;10;
77974;PMS5003;67164;51.202;0.278;2024-01-30T01:35:12;13;9;
77974;PMS5003;67164;51.202;0.278;2024-01-30T01:37:38;11;8;
77974;PMS5003;67164;51.202;0.278;2024-01-30T01:40:04;13;13;
77974;PMS5003;67164;51.202;0.278;2024-01-30T01:42:30;10;10;
77974;PMS5003;67164;51.202;0.278;2024-01-30T01:44:55;14;11;
77974;PMS5003;67164;51.202;0.278;2024-01-30T01:47:21;12;12;
77974;PMS5003;67164;51.202;0.278;2024-01-30T01:49:46;11;11;
77974;PMS5003;67164;51.202;0.278;2024-01-30T01:52:12;11;11;
77974;PMS5003;67164;51.202;0.278;2024-01-30T01:54:38;11;11;
77974;PMS5003;67164;51.202;0.278;2024-01-30T01:57:04;13;12;
77974;PMS5003;67164;51.202;0.278;2024-01-30T01:59:30;8;8;
77974;PMS5003;67164;51.202;0.278;2024-01-30T02:01:55;8;7;
77974;PMS5003;67164;51.202;0.278;2024-01-30T02:04:21;9;9;
77974;PMS5003;67164;51.202;0.278;2024-01-30T02:06:47;8;7;
77974;PMS5003;67164;51.202;0.278;2024-01-30T02:09:13;7;6;
77974;PMS5003;67164;51.202;0.278;2024-01-30T02:11:38;6;6;
77974;PMS5003;67164;51.202;0.278;2024-01-30T02:14:04;7;6;
77974;PMS5003;67164;51.202;0.278;2024-01-30T02:16:30;8;8;
77974;PMS5003;67164;51.202;0.278;2024-01-30T02:18:56;7;6;
77974;PMS5003;67164;51.202;0.278;2024-01-30T02:21:22;7;6;
77974;PMS5003;67164;51.202;0.278;2024-01-30T02:23:48;7;6;
77974;PMS5003;67164;51.202;0.278;2024-01-30T02:26:13;5;5;
77974;PMS5003;67164;51.202;0.278;2024-01-30T02:28:39;6;5;
77974;PMS5003;67164;51.202;0.278;2024-01-30T02:31:05;4;4;
77974;PMS5003;67164;51.202;0.278;2024-01-30T02:33:31;4;4;
77974;PMS5003;67164;51.202;0.278;2024-01-30T02:35:57;4;3;
77974;PMS5003;67164;51.202;0.278;2024-01-30T02:38:22;4;4;
77974;PMS5003;67164;51.202;0.278;2024-01-30T02:40:48;3;3;
77974;PMS5003;67164;51.202;0.278;2024-01-30T02:43:14;4;3;
77974;PMS5003;67164;51.202;0.278;2024-01-30T02:45:40;3;3;
77974;PMS5003;67164;51.202;0.278;2024-01-30T02:48:06;5;2;
77974;PMS5003;67164;51.202;0.278;2024-01-30T02:50:31;2;2;
77974;PMS5003;67164;51.202;0.278;2024-01-30T02:52:57;3;3;
77974;PMS5003;67164;51.202;0.278;2024-01-30T02:55:23;4;4;
77974;PMS5003;67164;51.202;0.278;2024-01-30T02:57:49;3;2;
77974;PMS5003;67164;51.202;0.278;2024-01-30T03:00:19;4;3;
77974;PMS5003;67164;51.202;0.278;2024-01-30T03:02:40;1;1;
77974;PMS5003;67164;51.202;0.278;2024-01-30T03:05:07;3;3;
77974;PMS5003;67164;51.202;0.278;2024-01-30T03:07:32;2;2;
77974;PMS5003;67164;51.202;0.278;2024-01-30T03:09:58;1;1;
77974;PMS5003;67164;51.202;0.278;2024-01-30T03:12:23;2;2;
77974;PMS5003;67164;51.202;0.278;2024-01-30T03:14:49;2;2;
77974;PMS5003;67164;51.202;0.278;2024-01-30T03:17:15;1;1;
77974;PMS5003;67164;51.202;0.278;2024-01-30T03:19:41;1;1;
77974;PMS5003;67164;51.202;0.278;2024-01-30T03:22:07;2;2;
77974;PMS5003;67164;51.202;0.278;2024-01-30T03:24:32;1;1;
77974;PMS5003;67164;51.202;0.278;2024-01-30T03:26:58;2;1;
77974;PMS5003;67164;51.202;0.278;2024-01-30T03:29:24;1;0;
77974;PMS5003;67164;51.202;0.278;2024-01-30T03:31:50;1;1;
77974;PMS5003;67164;51.202;0.278;2024-01-30T03:34:16;0;0;
77974;PMS5003;67164;51.202;0.278;2024-01-30T03:36:41;0;0;
77974;PMS5003;67164;51.202;0.278;2024-01-30T03:39:07;2;1;
77974;PMS5003;67164;51.202;0.278;2024-01-30T03:41:33;0;0;
77974;PMS5003;67164;51.202;0.278;2024-01-30T03:43:59;3;2;
77974;PMS5003;67164;51.202;0.278;2024-01-30T03:46:24;4;1;
77974;PMS5003;67164;51.202;0.278;2024-01-30T03:48:50;0;0;
77974;PMS5003;67164;51.202;0.278;2024-01-30T03:51:16;1;1;
77974;PMS5003;67164;51.202;0.278;2024-01-30T03:53:42;4;0;
77974;PMS5003;67164;51.202;0.278;2024-01-30T03:56:08;0;0;
77974;PMS5003;67164;51.202;0.278;2024-01-30T03:58:33;1;1;
77974;PMS5003;67164;51.202;0.278;2024-01-30T04:00:59;2;2;
77974;PMS5003;67164;51.202;0.278;2024-01-30T04:03:25;5;0;
77974;PMS5003;67164;51.202;0.278;2024-01-30T04:05:51;0;0;
77974;PMS5003;67164;51.202;0.278;2024-01-30T04:08:17;1;1;
77974;PMS5003;67164;51.202;0.278;2024-01-30T04:10:42;1;0;
77974;PMS5003;67164;51.202;0.278;2024-01-30T04:13:08;0;0;
77974;PMS5003;67164;51.202;0.278;2024-01-30T04:15:34;0;0;
77974;PMS5003;67164;51.202;0.278;2024-01-30T04:18:00;0;0;
77974;PMS5003;67164;51.202;0.278;2024-01-30T04:20:26;0;0;
77974;PMS5003;67164;51.202;0.278;2024-01-30T04:22:51;0;0;
77974;PMS5003;67164;51.202;0.278;2024-01-30T04:25:17;0;0;
77974;PMS5003;67164;51.202;0.278;2024-01-30T04:27:43;0;0;
77974;PMS5003;67164;51.202;0.278;2024-01-30T04:30:09;0;0;
77974;PMS5003;67164;51.202;0.278;2024-01-30T04:32:35;0;0;
77974;PMS5003;67164;51.202;0.278;2024-01-30T04:35:00;0;0;
77974;PMS5003;67164;51.202;0.278;2024-01-30T04:37:26;0;0;
77974;PMS5003;67164;51.202;0.278;2024-01-30T04:39:52;0;0;
77974;PMS5003;67164;51.202;0.278;2024-01-30T04:42:18;0;0;
77974;PMS5003;67164;51.202;0.278;2024-01-30T04:44:43;1;1;
77974;PMS5003;67164;51.202;0.278;2024-01-30T04:47:09;0;0;
77974;PMS5003;67164;51.202;0.278;2024-01-30T04:49:35;0;0;
77974;PMS5003;67164;51.202;0.278;2024-01-30T04:52:01;0;0;
77974;PMS5003;67164;51.202;0.278;2024-01-30T04:54:27;0;0;
77974;PMS5003;67164;51.202;0.278;2024-01-30T04:56:52;0;0;
77974;PMS5003;67164;51.202;0.278;2024-01-30T04:59:18;0;0;
77974;PMS5003;67164;51.202;0.278;2024-01-30T05:01:44;2;1;
77974;PMS5003;67164;51.202;0.278;2024-01-30T05:04:10;0;0;
77974;PMS5003;67164;51.202;0.278;2024-01-30T05:06:36;0;0;
77974;PMS5003;67164;51.202;0.278;2024-01-30T05:09:01;0;0;
77974;PMS5003;67164;51.202;0.278;2024-01-30T05:11:27;0;0;
77974;PMS5003;67164;51.202;0.278;2024-01-30T05:13:53;2;1;
77974;PMS5003;67164;51.202;0.278;2024-01-30T05:16:19;0;0;
77974;PMS5003;67164;51.202;0.278;2024-01-30T05:18:45;0;0;
77974;PMS5003;67164;51.202;0.278;2024-01-30T05:21:10;0;0;
77974;PMS5003;67164;51.202;0.278;2024-01-30T05:23:36;0;0;
77974;PMS5003;67164;51.202;0.278;2024-01-30T05:26:02;0;0;
77974;PMS5003;67164;51.202;0.278;2024-01-30T05:28:28;0;0;
77974;PMS5003;67164;51.202;0.278;2024-01-30T05:30:54;0;0;
77974;PMS5003;67164;51.202;0.278;2024-01-30T05:33:19;0;0;
77974;PMS5003;67164;51.202;0.278;2024-01-30T05:35:45;0;0;
77974;PMS5003;67164;51.202;0.278;2024-01-30T05:38:11;0;0;
77974;PMS5003;67164;51.202;0.278;2024-01-30T05:40:37;1;1;
77974;PMS5003;67164;51.202;0.278;2024-01-30T05:43:03;0;0;
77974;PMS5003;67164;51.202;0.278;2024-01-30T05:45:29;0;0;
77974;PMS5003;67164;51.202;0.278;2024-01-30T05:47:54;0;0;
77974;PMS5003;67164;51.202;0.278;2024-01-30T05:50:20;0;0;
77974;PMS5003;67164;51.202;0.278;2024-01-30T05:52:46;0;0;
77974;PMS5003;67164;51.202;0.278;2024-01-30T05:55:12;1;1;
77974;PMS5003;67164;51.202;0.278;2024-01-30T05:57:37;1;1;
77974;PMS5003;67164;51.202;0.278;2024-01-30T06:00:04;0;0;
77974;PMS5003;67164;51.202;0.278;2024-01-30T06:02:29;0;0;
77974;PMS5003;67164;51.202;0.278;2024-01-30T06:04:55;1;0;
77974;PMS5003;67164;51.202;0.278;2024-01-30T06:07:21;0;0;
77974;PMS5003;67164;51.202;0.278;2024-01-30T06:09:46;1;1;
77974;PMS5003;67164;51.202;0.278;2024-01-30T06:12:12;2;0;
77974;PMS5003;67164;51.202;0.278;2024-01-30T06:14:38;1;1;
77974;PMS5003;67164;51.202;0.278;2024-01-30T06:17:04;0;0;
77974;PMS5003;67164;51.202;0.278;2024-01-30T06:19:30;0;0;
77974;PMS5003;67164;51.202;0.278;2024-01-30T06:21:56;1;1;
77974;PMS5003;67164;51.202;0.278;2024-01-30T06:24:21;1;1;
77974;PMS5003;67164;51.202;0.278;2024-01-30T06:26:47;1;0;
77974;PMS5003;67164;51.202;0.278;2024-01-30T06:29:13;1;1;
77974;PMS5003;67164;51.202;0.278;2024-01-30T06:31:40;1;1;
77974;PMS5003;67164;51.202;0.278;2024-01-30T06:34:04;0;0;
77974;PMS5003;67164;51.202;0.278;2024-01-30T06:36:30;1;1;
77974;PMS5003;67164;51.202;0.278;2024-01-30T06:38:56;0;0;
77974;PMS5003;67164;51.202;0.278;2024-01-30T06:41:22;1;1;
77974;PMS5003;67164;51.202;0.278;2024-01-30T06:43:48;0;0;
77974;PMS5003;67164;51.202;0.278;2024-01-30T06:46:13;0;0;
77974;PMS5003;67164;51.202;0.278;2024-01-30T06:48:39;0;0;
77974;PMS5003;67164;51.202;0.278;2024-01-30T06:51:05;0;0;
77974;PMS5003;67164;51.202;0.278;2024-01-30T06:53:31;0;0;
77974;PMS5003;67164;51.202;0.278;2024-01-30T06:55:56;1;1;
77974;PMS5003;67164;51.202;0.278;2024-01-30T06:58:22;0;0;
77974;PMS5003;67164;51.202;0.278;2024-01-30T07:00:48;1;1;
77974;PMS5003;67164;51.202;0.278;2024-01-30T07:03:14;0;0;
77974;PMS5003;67164;51.202;0.278;2024-01-30T07:05:40;0;0;
77974;PMS5003;67164;51.202;0.278;2024-01-30T07:08:06;1;1;
77974;PMS5003;67164;51.202;0.278;2024-01-30T07:10:31;0;0;
77974;PMS5003;67164;51.202;0.278;2024-01-30T07:12:57;0;0;
77974;PMS5003;67164;51.202;0.278;2024-01-30T07:15:23;0;0;
77974;PMS5003;67164;51.202;0.278;2024-01-30T07:17:48;0;0;
77974;PMS5003;67164;51.202;0.278;2024-01-30T07:20:14;0;0;
77974;PMS5003;67164;51.202;0.278;2024-01-30T07:22:40;0;0;
77974;PMS5003;67164;51.202;0.278;2024-01-30T07:25:06;0;0;
77974;PMS5003;67164;51.202;0.278;2024-01-30T07:27:32;0;0;
77974;PMS5003;67164;51.202;0.278;2024-01-30T07:29:57;1;1;
77974;PMS5003;67164;51.202;0.278;2024-01-30T07:32:23;0;0;
77974;PMS5003;67164;51.202;0.278;2024-01-30T07:34:49;2;0;
77974;PMS5003;67164;51.202;0.278;2024-01-30T07:37:15;0;0;
77974;PMS5003;67164;51.202;0.278;2024-01-30T07:39:41;0;0;
77974;PMS5003;67164;51.202;0.278;2024-01-30T07:42:06;0;0;
77974;PMS5003;67164;51.202;0.278;2024-01-30T07:44:32;2;0;
77974;PMS5003;67164;51.202;0.278;2024-01-30T07:46:58;0;0;
77974;PMS5003;67164;51.202;0.278;2024-01-30T07:49:24;0;0;
77974;PMS5003;67164;51.202;0.278;2024-01-30T07:51:50;0;0;
77974;PMS5003;67164;51.202;0.278;2024-01-30T07:54:15;1;0;
77974;PMS5003;67164;51.202;0.278;2024-01-30T07:56:41;0;0;
77974;PMS5003;67164;51.202;0.278;2024-01-30T07:59:09;0;0;
77974;PMS5003;67164;51.202;0.278;2024-01-30T08:01:33;0;0;
77974;PMS5003;67164;51.202;0.278;2024-01-30T08:03:59;2;0;
77974;PMS5003;67164;51.202;0.278;2024-01-30T08:06:24;2;1;
77974;PMS5003;67164;51.202;0.278;2024-01-30T08:08:50;0;0;
77974;PMS5003;67164;51.202;0.278;2024-01-30T08:11:16;0;0;
77974;PMS5003;67164;51.202;0.278;2024-01-30T08:13:42;0;0;
77974;PMS5003;67164;51.202;0.278;2024-01-30T08:16:08;0;0;
77974;PMS5003;67164;51.202;0.278;2024-01-30T08:18:33;1;1;
77974;PMS5003;67164;51.202;0.278;2024-01-30T08:20:59;0;0;
77974;PMS5003;67164;51.202;0.278;2024-01-30T08:23:25;1;0;
77974;PMS5003;67164;51.202;0.278;2024-01-30T08:25:51;1;1;
77974;PMS5003;67164;51.202;0.278;2024-01-30T08:28:16;2;1;
77974;PMS5003;67164;51.202;0.278;2024-01-30T08:30:42;1;1;
77974;PMS5003;67164;51.202;0.278;2024-01-30T08:33:08;1;1;
77974;PMS5003;67164;51.202;0.278;2024-01-30T08:35:34;1;1;
77974;PMS5003;67164;51.202;0.278;2024-01-30T08:38:00;1;1;
77974;PMS5003;67164;51.202;0.278;2024-01-30T08:40:25;1;1;
77974;PMS5003;67164;51.202;0.278;2024-01-30T08:42:51;0;0;
77974;PMS5003;67164;51.202;0.278;2024-01-30T08:45:17;0;0;
77974;PMS5003;67164;51.202;0.278;2024-01-30T08:47:43;0;0;
77974;PMS5003;67164;51.202;0.278;2024-01-30T08:50:09;1;1;
77974;PMS5003;67164;51.202;0.278;2024-01-30T08:52:34;1;1;
77974;PMS5003;67164;51.202;0.278;2024-01-30T08:55:00;2;1;
77974;PMS5003;67164;51.202;0.278;2024-01-30T08:57:27;1;0;
77974;PMS5003;67164;51.202;0.278;2024-01-30T08:59:52;0;0;
77974;PMS5003;67164;51.202;0.278;2024-01-30T09:02:18;1;1;
77974;PMS5003;67164;51.202;0.278;2024-01-30T09:04:43;2;1;
77974;PMS5003;67164;51.202;0.278;2024-01-30T09:07:09;0;0;
77974;PMS5003;67164;51.202;0.278;2024-01-30T09:09:35;1;1;
77974;PMS5003;67164;51.202;0.278;2024-01-30T09:12:01;1;1;
77974;PMS5003;67164;51.202;0.278;2024-01-30T09:14:26;2;2;
77974;PMS5003;67164;51.202;0.278;2024-01-30T09:16:52;1;1;
77974;PMS5003;67164;51.202;0.278;2024-01-30T09:19:18;2;2;
77974;PMS5003;67164;51.202;0.278;2024-01-30T09:21:44;0;0;
77974;PMS5003;67164;51.202;0.278;2024-01-30T09:24:10;0;0;
77974;PMS5003;67164;51.202;0.278;2024-01-30T09:26:36;2;1;
77974;PMS5003;67164;51.202;0.278;2024-01-30T09:29:01;1;1;
77974;PMS5003;67164;51.202;0.278;2024-01-30T09:31:27;1;1;
77974;PMS5003;67164;51.202;0.278;2024-01-30T09:33:53;2;1;
77974;PMS5003;67164;51.202;0.278;2024-01-30T09:36:19;0;0;
77974;PMS5003;67164;51.202;0.278;2024-01-30T09:38:45;1;1;
77974;PMS5003;67164;51.202;0.278;2024-01-30T09:41:10;1;1;
77974;PMS5003;67164;51.202;0.278;2024-01-30T09:43:36;1;1;
77974;PMS5003;67164;51.202;0.278;2024-01-30T09:46:02;1;1;
77974;PMS5003;67164;51.202;0.278;2024-01-30T09:48:28;1;1;
77974;PMS5003;67164;51.202;0.278;2024-01-30T09:50:53;0;0;
77974;PMS5003;67164;51.202;0.278;2024-01-30T09:53:19;0;0;
77974;PMS5003;67164;51.202;0.278;2024-01-30T09:55:45;1;1;
77974;PMS5003;67164;51.202;0.278;2024-01-30T09:58:11;0;0;
77974;PMS5003;67164;51.202;0.278;2024-01-30T10:00:37;4;1;
77974;PMS5003;67164;51.202;0.278;2024-01-30T10:03:03;0;0;
77974;PMS5003;67164;51.202;0.278;2024-01-30T10:05:28;0;0;
77974;PMS5003;67164;51.202;0.278;2024-01-30T10:07:55;1;1;
77974;PMS5003;67164;51.202;0.278;2024-01-30T10:10:21;1;1;
77974;PMS5003;67164;51.202;0.278;2024-01-30T10:12:46;1;1;
77974;PMS5003;67164;51.202;0.278;2024-01-30T10:15:12;2;2;
77974;PMS5003;67164;51.202;0.278;2024-01-30T10:17:37;1;1;
77974;PMS5003;67164;51.202;0.278;2024-01-30T10:20:04;0;0;
77974;PMS5003;67164;51.202;0.278;2024-01-30T10:22:29;2;1;
77974;PMS5003;67164;51.202;0.278;2024-01-30T10:24:55;2;2;
77974;PMS5003;67164;51.202;0.278;2024-01-30T10:27:23;1;1;
77974;PMS5003;67164;51.202;0.278;2024-01-30T10:29:48;1;1;
77974;PMS5003;67164;51.202;0.278;2024-01-30T10:32:12;1;1;
77974;PMS5003;67164;51.202;0.278;2024-01-30T10:34:38;3;2;
77974;PMS5003;67164;51.202;0.278;2024-01-30T10:37:07;2;1;
77974;PMS5003;67164;51.202;0.278;2024-01-30T10:39:30;0;0;
77974;PMS5003;67164;51.202;0.278;2024-01-30T10:41:55;1;1;
77974;PMS5003;67164;51.202;0.278;2024-01-30T10:44:21;0;0;
77974;PMS5003;67164;51.202;0.278;2024-01-30T10:46:49;1;1;
77974;PMS5003;67164;51.202;0.278;2024-01-30T10:49:13;1;1;
77974;PMS5003;67164;51.202;0.278;2024-01-30T10:51:39;1;1;
77974;PMS5003;67164;51.202;0.278;2024-01-30T10:54:05;2;1;
77974;PMS5003;67164;51.202;0.278;2024-01-30T10:56:30;1;1;
77974;PMS5003;67164;51.202;0.278;2024-01-30T10:58:56;1;1;
77974;PMS5003;67164;51.202;0.278;2024-01-30T11:01:22;1;1;
77974;PMS5003;67164;51.202;0.278;2024-01-30T11:03:47;2;2;
77974;PMS5003;67164;51.202;0.278;2024-01-30T11:06:13;0;0;
77974;PMS5003;67164;51.202;0.278;2024-01-30T11:08:39;0;0;
77974;PMS5003;67164;51.202;0.278;2024-01-30T11:11:07;0;0;
77974;PMS5003;67164;51.202;0.278;2024-01-30T11:13:31;0;0;
77974;PMS5003;67164;51.202;0.278;2024-01-30T11:16:00;1;0;
77974;PMS5003;67164;51.202;0.278;2024-01-30T11:18:22;1;1;
77974;PMS5003;67164;51.202;0.278;2024-01-30T11:20:48;0;0;
77974;PMS5003;67164;51.202;0.278;2024-01-30T11:23:14;0;0;
77974;PMS5003;67164;51.202;0.278;2024-01-30T11:25:40;0;0;
77974;PMS5003;67164;51.202;0.278;2024-01-30T11:28:06;1;1;
77974;PMS5003;67164;51.202;0.278;2024-01-30T11:30:31;0;0;
77974;PMS5003;67164;51.202;0.278;2024-01-30T11:32:59;1;1;
77974;PMS5003;67164;51.202;0.278;2024-01-30T11:35:23;0;0;
77974;PMS5003;67164;51.202;0.278;2024-01-30T11:37:49;0;0;
77974;PMS5003;67164;51.202;0.278;2024-01-30T11:40:14;1;1;
77974;PMS5003;67164;51.202;0.278;2024-01-30T11:42:40;0;0;
77974;PMS5003;67164;51.202;0.278;2024-01-30T11:45:06;1;1;
77974;PMS5003;67164;51.202;0.278;2024-01-30T11:47:34;1;0;
77974;PMS5003;67164;51.202;0.278;2024-01-30T11:49:58;1;0;
77974;PMS5003;67164;51.202;0.278;2024-01-30T11:52:23;0;0;
77974;PMS5003;67164;51.202;0.278;2024-01-30T11:54:49;0;0;
77974;PMS5003;67164;51.202;0.278;2024-01-30T11:57:15;0;0;
77974;PMS5003;67164;51.202;0.278;2024-01-30T11:59:41;0;0;
77974;PMS5003;67164;51.202;0.278;2024-01-30T12:02:06;1;1;
77974;PMS5003;67164;51.202;0.278;2024-01-30T12:04:32;1;1;
77974;PMS5003;67164;51.202;0.278;2024-01-30T12:06:58;1;1;
77974;PMS5003;67164;51.202;0.278;2024-01-30T12:09:24;0;0;
77974;PMS5003;67164;51.202;0.278;2024-01-30T12:11:50;1;1;
77974;PMS5003;67164;51.202;0.278;2024-01-30T12:14:16;2;2;
77974;PMS5003;67164;51.202;0.278;2024-01-30T12:16:41;1;1;
77974;PMS5003;67164;51.202;0.278;2024-01-30T12:19:07;1;1;
77974;PMS5003;67164;51.202;0.278;2024-01-30T12:21:33;1;1;
77974;PMS5003;67164;51.202;0.278;2024-01-30T12:23:59;1;1;
77974;PMS5003;67164;51.202;0.278;2024-01-30T12:26:24;4;2;
77974;PMS5003;67164;51.202;0.278;2024-01-30T12:28:50;3;3;
77974;PMS5003;67164;51.202;0.278;2024-01-30T12:31:16;3;3;
77974;PMS5003;67164;51.202;0.278;2024-01-30T12:33:41;3;2;
77974;PMS5003;67164;51.202;0.278;2024-01-30T12:36:07;3;3;
77974;PMS5003;67164;51.202;0.278;2024-01-30T12:38:33;3;3;
77974;PMS5003;67164;51.202;0.278;2024-01-30T12:40:59;2;2;
77974;PMS5003;67164;51.202;0.278;2024-01-30T12:43:25;5;3;
77974;PMS5003;67164;51.202;0.278;2024-01-30T12:45:52;5;4;
77974;PMS5003;67164;51.202;0.278;2024-01-30T12:48:16;3;3;
77974;PMS5003;67164;51.202;0.278;2024-01-30T12:50:42;3;3;
77974;PMS5003;67164;51.202;0.278;2024-01-30T12:53:08;4;4;
77974;PMS5003;67164;51.202;0.278;2024-01-30T12:55:34;5;4;
77974;PMS5003;67164;51.202;0.278;2024-01-30T12:57:59;2;2;
77974;PMS5003;67164;51.202;0.278;2024-01-30T13:00:25;4;4;
77974;PMS5003;67164;51.202;0.278;2024-01-30T13:02:51;5;5;
77974;PMS5003;67164;51.202;0.278;2024-01-30T13:05:17;6;3;
77974;PMS5003;67164;51.202;0.278;2024-01-30T13:07:43;5;5;
77974;PMS5003;67164;51.202;0.278;2024-01-30T13:10:08;6;6;
77974;PMS5003;67164;51.202;0.278;2024-01-30T13:12:34;4;4;
77974;PMS5003;67164;51.202;0.278;2024-01-30T13:15:00;4;4;
77974;PMS5003;67164;51.202;0.278;2024-01-30T13:17:26;5;5;
77974;PMS5003;67164;51.202;0.278;2024-01-30T13:19:51;6;5;
77974;PMS5003;67164;51.202;0.278;2024-01-30T13:22:17;6;5;
77974;PMS5003;67164;51.202;0.278;2024-01-30T13:24:43;4;4;
77974;PMS5003;67164;51.202;0.278;2024-01-30T13:27:09;4;4;
77974;PMS5003;67164;51.202;0.278;2024-01-30T13:29:35;7;6;
77974;PMS5003;67164;51.202;0.278;2024-01-30T13:32:00;6;5;
77974;PMS5003;67164;51.202;0.278;2024-01-30T13:34:26;3;3;
77974;PMS5003;67164;51.202;0.278;2024-01-30T13:36:52;6;3;
77974;PMS5003;67164;51.202;0.278;2024-01-30T13:39:18;3;3;
77974;PMS5003;67164;51.202;0.278;2024-01-30T13:41:44;6;4;
77974;PMS5003;67164;51.202;0.278;2024-01-30T13:44:09;2;2;
77974;PMS5003;67164;51.202;0.278;2024-01-30T13:46:35;5;4;
77974;PMS5003;67164;51.202;0.278;2024-01-30T13:49:01;6;5;
77974;PMS5003;67164;51.202;0.278;2024-01-30T13:51:27;4;3;
77974;PMS5003;67164;51.202;0.278;2024-01-30T13:53:53;5;4;
77974;PMS5003;67164;51.202;0.278;2024-01-30T13:56:19;5;4;
77974;PMS5003;67164;51.202;0.278;2024-01-30T13:58:44;3;3;
77974;PMS5003;67164;51.202;0.278;2024-01-30T14:01:10;4;4;
77974;PMS5003;67164;51.202;0.278;2024-01-30T14:03:36;4;4;
77974;PMS5003;67164;51.202;0.278;2024-01-30T14:06:02;4;4;
77974;PMS5003;67164;51.202;0.278;2024-01-30T14:08:27;3;3;
77974;PMS5003;67164;51.202;0.278;2024-01-30T14:10:53;3;3;
77974;PMS5003;67164;51.202;0.278;2024-01-30T14:13:19;4;4;
77974;PMS5003;67164;51.202;0.278;2024-01-30T14:15:45;5;4;
77974;PMS5003;67164;51.202;0.278;2024-01-30T14:18:10;2;2;
77974;PMS5003;67164;51.202;0.278;2024-01-30T14:20:36;4;3;
77974;PMS5003;67164;51.202;0.278;2024-01-30T14:23:02;5;3;
77974;PMS5003;67164;51.202;0.278;2024-01-30T14:25:28;5;5;
77974;PMS5003;67164;51.202;0.278;2024-01-30T14:27:54;3;3;
77974;PMS5003;67164;51.202;0.278;2024-01-30T14:30:19;4;4;
77974;PMS5003;67164;51.202;0.278;2024-01-30T14:32:45;5;4;
77974;PMS5003;67164;51.202;0.278;2024-01-30T14:35:11;3;3;
77974;PMS5003;67164;51.202;0.278;2024-01-30T14:37:37;6;4;
77974;PMS5003;67164;51.202;0.278;2024-01-30T14:40:03;3;3;
77974;PMS5003;67164;51.202;0.278;2024-01-30T14:42:29;2;2;
77974;PMS5003;67164;51.202;0.278;2024-01-30T14:44:54;3;3;
77974;PMS5003;67164;51.202;0.278;2024-01-30T14:47:20;4;3;
77974;PMS5003;67164;51.202;0.278;2024-01-30T14:49:46;4;2;
77974;PMS5003;67164;51.202;0.278;2024-01-30T14:52:12;3;3;
77974;PMS5003;67164;51.202;0.278;2024-01-30T14:54:37;4;3;
77974;PMS5003;67164;51.202;0.278;2024-01-30T14:57:03;4;4;
77974;PMS5003;67164;51.202;0.278;2024-01-30T14:59:29;3;3;
77974;PMS5003;67164;51.202;0.278;2024-01-30T15:01:55;2;2;
77974;PMS5003;67164;51.202;0.278;2024-01-30T15:04:21;3;3;
77974;PMS5003;67164;51.202;0.278;2024-01-30T15:06:47;2;2;
77974;PMS5003;67164;51.202;0.278;2024-01-30T15:09:12;3;3;
77974;PMS5003;67164;51.202;0.278;2024-01-30T15:11:38;4;3;
77974;PMS5003;67164;51.202;0.278;2024-01-30T15:14:04;3;3;
77974;PMS5003;67164;51.202;0.278;2024-01-30T15:16:30;2;2;
77974;PMS5003;67164;51.202;0.278;2024-01-30T15:18:56;1;1;
77974;PMS5003;67164;51.202;0.278;2024-01-30T15:21:21;3;3;
77974;PMS5003;67164;51.202;0.278;2024-01-30T15:23:47;2;2;
77974;PMS5003;67164;51.202;0.278;2024-01-30T15:26:14;1;1;
77974;PMS5003;67164;51.202;0.278;2024-01-30T15:28:39;1;1;
77974;PMS5003;67164;51.202;0.278;2024-01-30T15:31:05;1;1;
77974;PMS5003;67164;51.202;0.278;2024-01-30T15:33:31;2;2;
77974;PMS5003;67164;51.202;0.278;2024-01-30T15:35:56;0;0;
77974;PMS5003;67164;51.202;0.278;2024-01-30T15:38:22;2;2;
77974;PMS5003;67164;51.202;0.278;2024-01-30T15:40:48;2;2;
77974;PMS5003;67164;51.202;0.278;2024-01-30T15:43:13;1;1;
77974;PMS5003;67164;51.202;0.278;2024-01-30T15:45:39;1;1;
77974;PMS5003;67164;51.202;0.278;2024-01-30T15:48:05;2;2;
77974;PMS5003;67164;51.202;0.278;2024-01-30T15:50:31;1;1;
77974;PMS5003;67164;51.202;0.278;2024-01-30T15:52:57;0;0;
77974;PMS5003;67164;51.202;0.278;2024-01-30T15:55:22;1;1;
77974;PMS5003;67164;51.202;0.278;2024-01-30T15:57:48;2;2;
77974;PMS5003;67164;51.202;0.278;2024-01-30T16:00:14;2;2;
77974;PMS5003;67164;51.202;0.278;2024-01-30T16:02:40;0;0;
77974;PMS5003;67164;51.202;0.278;2024-01-30T16:05:06;1;1;
77974;PMS5003;67164;51.202;0.278;2024-01-30T16:07:31;1;1;
77974;PMS5003;67164;51.202;0.278;2024-01-30T16:09:57;2;2;
77974;PMS5003;67164;51.202;0.278;2024-01-30T16:12:23;3;2;
77974;PMS5003;67164;51.202;0.278;2024-01-30T16:14:49;1;1;
77974;PMS5003;67164;51.202;0.278;2024-01-30T16:17:15;2;2;
77974;PMS5003;67164;51.202;0.278;2024-01-30T16:19:40;2;2;
77974;PMS5003;67164;51.202;0.278;2024-01-30T16:22:06;2;2;
77974;PMS5003;67164;51.202;0.278;2024-01-30T16:24:32;1;1;
77974;PMS5003;67164;51.202;0.278;2024-01-30T16:26:58;3;2;
77974;PMS5003;67164;51.202;0.278;2024-01-30T16:29:24;1;1;
77974;PMS5003;67164;51.202;0.278;2024-01-30T16:31:49;2;2;
77974;PMS5003;67164;51.202;0.278;2024-01-30T16:34:15;1;1;
77974;PMS5003;67164;51.202;0.278;2024-01-30T16:36:41;2;2;